createdAt,value
2017-02-13T00:01:13.320Z,3.01
2017-02-13T00:03:10.670Z,3.01
2017-02-13T00:05:03.094Z,3.01
2017-02-13T00:07:10.430Z,2.99
2017-02-13T00:09:18.067Z,2.98
2017-02-13T00:11:15.407Z,2.97
2017-02-13T00:13:07.802Z,2.98
2017-02-13T00:15:00.379Z,2.97
2017-02-13T00:16:52.887Z,2.95
2017-02-13T00:19:00.373Z,2.93
2017-02-13T00:21:02.639Z,2.92
2017-02-13T00:22:55.228Z,2.92
2017-02-13T00:24:47.702Z,2.94
2017-02-13T00:26:55.062Z,2.95
2017-02-13T00:28:47.327Z,2.95
2017-02-13T00:30:49.760Z,2.95
2017-02-13T00:32:57.145Z,2.96
2017-02-13T00:34:54.598Z,2.96
2017-02-13T00:36:56.845Z,2.95
2017-02-13T00:38:59.214Z,2.96
2017-02-13T00:40:56.668Z,2.97
2017-02-13T00:42:49.390Z,2.98
2017-02-13T00:44:56.979Z,2.98
2017-02-13T00:47:04.221Z,2.97
2017-02-13T00:48:56.691Z,2.96
2017-02-13T00:50:54.141Z,2.95
2017-02-13T00:52:56.465Z,2.93
2017-02-13T00:55:03.826Z,2.93
2017-02-13T00:57:01.346Z,2.93
2017-02-13T00:58:58.865Z,2.94
2017-02-13T01:01:01.258Z,2.97
2017-02-13T01:02:43.610Z,2.99
2017-02-13T01:04:46.128Z,2.99
2017-02-13T01:06:43.500Z,3
2017-02-13T01:08:30.973Z,2.99
2017-02-13T01:10:18.479Z,2.99
2017-02-13T01:12:05.827Z,3
2017-02-13T01:14:03.113Z,2.98
2017-02-13T01:16:00.346Z,2.98
2017-02-13T01:18:03.179Z,2.97
2017-02-13T01:19:55.696Z,2.96
2017-02-13T01:21:52.977Z,2.95
2017-02-13T01:23:55.397Z,2.91
2017-02-13T01:26:02.906Z,2.88
2017-02-13T01:28:00.389Z,2.85
2017-02-13T01:30:02.772Z,2.83
2017-02-13T01:32:10.200Z,2.81
2017-02-13T01:34:12.485Z,2.83
2017-02-13T01:36:09.837Z,2.84
2017-02-13T01:38:17.235Z,2.84
2017-02-13T01:40:04.625Z,2.81
2017-02-13T01:42:02.062Z,2.78
2017-02-13T01:43:54.484Z,2.76
2017-02-13T01:45:46.976Z,2.74
2017-02-13T01:47:49.303Z,2.74
2017-02-13T01:49:36.606Z,2.73
2017-02-13T01:51:29.518Z,2.76
2017-02-13T01:53:37.202Z,2.79
2017-02-13T01:55:24.511Z,2.82
2017-02-13T01:57:16.838Z,2.84
2017-02-13T01:59:19.223Z,2.85
2017-02-13T02:01:16.834Z,2.87
2017-02-13T02:03:19.173Z,2.89
2017-02-13T02:05:16.715Z,2.9
2017-02-13T02:07:28.886Z,2.91
2017-02-13T02:09:31.338Z,2.92
2017-02-13T02:11:23.671Z,2.93
2017-02-13T02:13:26.196Z,2.93
2017-02-13T02:15:33.380Z,2.91
2017-02-13T02:17:30.747Z,2.87
2017-02-13T02:19:38.208Z,2.84
2017-02-13T02:21:35.535Z,2.82
2017-02-13T02:23:23.122Z,2.82
2017-02-13T02:25:21.149Z,2.81
2017-02-13T02:27:23.870Z,2.84
2017-02-13T02:29:26.376Z,2.84
2017-02-13T02:31:28.780Z,2.87
2017-02-13T02:33:31.130Z,2.87
2017-02-13T02:35:28.470Z,2.88
2017-02-13T02:37:20.745Z,2.87
2017-02-13T02:39:22.947Z,2.88
2017-02-13T02:41:30.251Z,2.87
2017-02-13T02:43:42.454Z,2.87
2017-02-13T02:45:44.739Z,2.87
2017-02-13T02:47:42.145Z,2.88
2017-02-13T02:49:34.417Z,2.9
2017-02-13T02:51:36.663Z,2.92
2017-02-13T02:53:39.097Z,2.93
2017-02-13T02:55:41.457Z,2.93
2017-02-13T02:57:43.942Z,2.94
2017-02-13T02:59:56.675Z,2.97
2017-02-13T03:01:54.273Z,2.97
2017-02-13T03:03:56.543Z,2.98
2017-02-13T03:05:53.817Z,3
2017-02-13T03:07:46.390Z,2.99
2017-02-13T03:09:43.766Z,2.96
2017-02-13T03:11:31.080Z,2.95
2017-02-13T03:13:43.272Z,2.93
2017-02-13T03:15:45.593Z,2.91
2017-02-13T03:17:38.061Z,2.92
2017-02-13T03:19:35.443Z,2.92
2017-02-13T03:21:27.815Z,2.92
2017-02-13T03:23:25.064Z,2.94
2017-02-13T03:25:22.605Z,2.94
2017-02-13T03:27:19.840Z,2.94
2017-02-13T03:29:17.145Z,2.93
2017-02-13T03:31:14.514Z,2.92
2017-02-13T03:33:11.963Z,2.93
2017-02-13T03:35:10.232Z,2.95
2017-02-13T03:37:17.805Z,2.95
2017-02-13T03:39:10.070Z,2.95
2017-02-13T03:41:07.543Z,2.95
2017-02-13T03:42:49.929Z,2.96
2017-02-13T03:44:57.300Z,2.97
2017-02-13T03:46:54.633Z,2.98
2017-02-13T03:49:01.884Z,2.98
2017-02-13T03:50:54.272Z,2.97
2017-02-13T03:52:51.593Z,2.94
2017-02-13T03:54:54.014Z,2.89
2017-02-13T03:56:47.276Z,2.85
2017-02-13T03:58:54.703Z,2.81
2017-02-13T04:00:37.171Z,2.78
2017-02-13T04:02:29.575Z,2.77
2017-02-13T04:04:31.820Z,2.75
2017-02-13T04:06:34.091Z,2.75
2017-02-13T04:08:36.711Z,2.76
2017-02-13T04:10:49.424Z,2.77
2017-02-13T04:12:51.717Z,2.78
2017-02-13T04:14:43.965Z,2.78
2017-02-13T04:16:41.233Z,2.8
2017-02-13T04:18:48.391Z,2.78
2017-02-13T04:20:45.694Z,2.76
2017-02-13T04:22:48.187Z,2.73
2017-02-13T04:24:45.599Z,2.72
2017-02-13T04:26:47.970Z,2.7
2017-02-13T04:28:40.393Z,2.71
2017-02-13T04:30:42.714Z,2.71
2017-02-13T04:32:35.093Z,2.72
2017-02-13T04:34:37.522Z,2.74
2017-02-13T04:36:24.870Z,2.74
2017-02-13T04:38:32.285Z,2.77
2017-02-13T04:40:34.631Z,2.78
2017-02-13T04:42:32.211Z,2.8
2017-02-13T04:44:24.965Z,2.81
2017-02-13T04:46:37.543Z,2.83
2017-02-13T04:48:29.812Z,2.82
2017-02-13T04:50:27.150Z,2.8
2017-02-13T04:52:34.674Z,2.76
2017-02-13T04:54:31.977Z,2.74
2017-02-13T04:56:34.203Z,2.73
2017-02-13T04:58:46.399Z,2.74
2017-02-13T05:00:43.846Z,2.74
2017-02-13T05:02:41.150Z,2.73
2017-02-13T05:04:43.519Z,2.75
2017-02-13T05:06:35.968Z,2.78
2017-02-13T05:08:38.324Z,2.81
2017-02-13T05:10:45.781Z,2.82
2017-02-13T05:12:38.065Z,2.83
2017-02-13T05:14:30.534Z,2.86
2017-02-13T05:16:42.910Z,2.86
2017-02-13T05:18:45.722Z,2.84
2017-02-13T05:20:43.018Z,2.85
2017-02-13T05:22:50.312Z,2.86
2017-02-13T05:24:52.526Z,2.86
2017-02-13T05:26:49.973Z,2.86
2017-02-13T05:28:57.163Z,2.85
2017-02-13T05:30:59.467Z,2.87
2017-02-13T05:32:56.826Z,2.87
2017-02-13T05:34:49.326Z,2.87
2017-02-13T05:36:51.549Z,2.87
2017-02-13T05:38:48.864Z,2.88
2017-02-13T05:40:56.256Z,2.9
2017-02-13T05:42:43.611Z,2.9
2017-02-13T05:44:51.161Z,2.92
2017-02-13T05:46:53.536Z,2.92
2017-02-13T05:48:45.907Z,2.92
2017-02-13T05:50:33.203Z,2.93
2017-02-13T05:52:41.529Z,2.9
2017-02-13T05:54:49.265Z,2.88
2017-02-13T05:56:51.507Z,2.89
2017-02-13T05:58:53.962Z,2.89
2017-02-13T06:00:51.338Z,2.87
2017-02-13T06:02:43.704Z,2.88
2017-02-13T06:04:41.116Z,2.86
2017-02-13T06:06:38.515Z,2.86
2017-02-13T06:08:30.911Z,2.88
2017-02-13T06:10:33.405Z,2.86
2017-02-13T06:12:30.808Z,2.83
2017-02-13T06:14:33.107Z,2.82
2017-02-13T06:16:25.487Z,2.81
2017-02-13T06:18:32.891Z,2.79
2017-02-13T06:20:30.331Z,2.76
2017-02-13T06:22:37.598Z,2.73
2017-02-13T06:24:34.950Z,2.73
2017-02-13T06:26:37.253Z,2.74
2017-02-13T06:28:39.791Z,2.76
2017-02-13T06:30:48.474Z,2.77
2017-02-13T06:32:45.796Z,2.79
2017-02-13T06:34:48.213Z,2.78
2017-02-13T06:36:41.478Z,2.79
2017-02-13T06:38:43.893Z,2.79
2017-02-13T06:40:56.185Z,2.78
2017-02-13T06:42:58.554Z,2.79
2017-02-13T06:44:55.866Z,2.83
2017-02-13T06:47:03.305Z,2.85
2017-02-13T06:49:10.665Z,2.86
2017-02-13T06:51:17.929Z,2.86
2017-02-13T06:53:25.233Z,2.9
2017-02-13T06:55:37.511Z,2.92
2017-02-13T06:57:39.983Z,2.94
2017-02-13T06:59:47.652Z,2.95
2017-02-13T07:01:59.894Z,2.95
2017-02-13T07:04:02.486Z,2.94
2017-02-13T07:05:59.831Z,2.97
2017-02-13T07:07:52.347Z,3
2017-02-13T07:10:01.413Z,3.01
2017-02-13T07:11:58.635Z,3.01
2017-02-13T07:14:01.298Z,3.04
2017-02-13T07:15:53.809Z,3.06
2017-02-13T07:17:46.372Z,3.08
2017-02-13T07:19:38.780Z,3.08
2017-02-13T07:21:36.072Z,3.06
2017-02-13T07:23:28.617Z,3.09
2017-02-13T07:25:41.418Z,3.1
2017-02-13T07:27:38.949Z,3.13
2017-02-13T07:29:41.613Z,3.15
2017-02-13T07:31:39.605Z,3.16
2017-02-13T07:33:37.329Z,3.15
2017-02-13T07:35:45.078Z,3.14
2017-02-13T07:37:37.697Z,3.13
2017-02-13T07:39:50.306Z,3.16
2017-02-13T07:41:53.051Z,3.19
2017-02-13T07:43:50.572Z,3.23
2017-02-13T07:45:53.563Z,3.28
2017-02-13T07:47:55.869Z,3.35
2017-02-13T07:49:58.229Z,3.44
2017-02-13T07:52:00.570Z,3.52
2017-02-13T07:53:57.835Z,3.54
2017-02-13T07:55:45.269Z,3.58
2017-02-13T07:57:37.671Z,3.62
2017-02-13T07:59:34.898Z,3.68
2017-02-13T08:01:20.724Z,3.74
2017-02-13T08:03:17.995Z,3.75
2017-02-13T08:05:25.192Z,3.78
2017-02-13T08:07:27.503Z,3.81
2017-02-13T08:09:29.933Z,3.83
2017-02-13T08:11:37.108Z,3.86
2017-02-13T08:13:34.420Z,3.86
2017-02-13T08:15:27.157Z,3.87
2017-02-13T08:17:19.503Z,3.88
2017-02-13T08:19:06.808Z,3.88
2017-02-13T08:21:09.031Z,3.87
2017-02-13T08:23:16.256Z,3.9
2017-02-13T08:25:13.506Z,3.9
2017-02-13T08:27:06.871Z,3.9
2017-02-13T08:28:59.354Z,3.87
2017-02-13T08:30:51.647Z,3.88
2017-02-13T08:32:48.986Z,3.93
2017-02-13T08:34:31.370Z,3.95
2017-02-13T08:36:38.566Z,4.02
2017-02-13T08:38:35.982Z,4.06
2017-02-13T08:40:38.331Z,4.09
2017-02-13T08:42:36.603Z,4.12
2017-02-13T08:44:49.013Z,4.21
2017-02-13T08:46:51.241Z,4.25
2017-02-13T08:48:53.461Z,4.24
2017-02-13T08:50:50.798Z,4.24
2017-02-13T08:52:53.131Z,4.27
2017-02-13T08:54:55.378Z,4.39
2017-02-13T08:57:02.716Z,4.46
2017-02-13T08:58:59.986Z,4.5
2017-02-13T09:01:02.339Z,4.51
2017-02-13T09:02:59.793Z,4.52
2017-02-13T09:04:42.052Z,4.57
2017-02-13T09:06:29.347Z,4.64
2017-02-13T09:08:31.619Z,4.72
2017-02-13T09:10:23.902Z,4.77
2017-02-13T09:12:11.253Z,4.8
2017-02-13T09:14:08.661Z,4.83
2017-02-13T09:16:00.931Z,4.85
2017-02-13T09:18:08.289Z,4.86
2017-02-13T09:20:15.484Z,4.94
2017-02-13T09:21:57.734Z,5.04
2017-02-13T09:24:05.172Z,5.08
2017-02-13T09:26:03.768Z,5.11
2017-02-13T09:28:11.559Z,5.16
2017-02-13T09:30:03.888Z,5.19
2017-02-13T09:31:56.514Z,5.25
2017-02-13T09:34:03.751Z,5.32
2017-02-13T09:36:01.367Z,5.35
2017-02-13T09:38:03.759Z,5.38
2017-02-13T09:40:11.065Z,5.42
2017-02-13T09:42:09.967Z,5.46
2017-02-13T09:44:35.289Z,5.44
2017-02-13T09:46:48.539Z,5.5
2017-02-13T09:48:56.083Z,5.56
2017-02-13T09:51:14.282Z,5.6
2017-02-13T09:53:22.335Z,5.64
2017-02-13T09:55:14.760Z,5.7
2017-02-13T09:57:17.182Z,5.72
2017-02-13T09:59:14.594Z,5.74
2017-02-13T10:01:22.237Z,5.77
2017-02-13T10:03:19.806Z,5.79
2017-02-13T10:05:22.037Z,5.86
2017-02-13T10:07:24.458Z,5.94
2017-02-13T10:09:31.804Z,6.04
2017-02-13T10:11:34.269Z,6.11
2017-02-13T10:13:41.466Z,6.14
2017-02-13T10:15:43.908Z,6.2
2017-02-13T10:17:46.301Z,6.23
2017-02-13T10:19:53.558Z,6.17
2017-02-13T10:21:45.974Z,6.19
2017-02-13T10:23:38.395Z,6.21
2017-02-13T10:25:35.803Z,6.27
2017-02-13T10:27:33.181Z,6.38
2017-02-13T10:29:26.466Z,6.44
2017-02-13T10:31:23.708Z,6.47
2017-02-13T10:33:25.937Z,6.51
2017-02-13T10:35:28.313Z,6.62
2017-02-13T10:37:20.648Z,6.75
2017-02-13T10:39:07.949Z,6.79
2017-02-13T10:41:00.119Z,6.82
2017-02-13T10:42:52.427Z,6.86
2017-02-13T10:44:44.769Z,7
2017-02-13T10:46:47.047Z,7.17
2017-02-13T10:48:49.605Z,7.27
2017-02-13T10:50:51.917Z,7.32
2017-02-13T10:52:49.239Z,7.43
2017-02-13T10:54:46.719Z,7.5
2017-02-13T10:56:49.111Z,7.45
2017-02-13T10:58:41.449Z,7.4
2017-02-13T11:00:43.657Z,7.25
2017-02-13T11:02:45.973Z,7.21
2017-02-13T11:04:53.126Z,7.21
2017-02-13T11:06:55.499Z,7.26
2017-02-13T11:09:03.105Z,7.29
2017-02-13T11:10:50.534Z,7.33
2017-02-13T11:12:57.798Z,7.38
2017-02-13T11:15:10.046Z,7.44
2017-02-13T11:17:07.356Z,7.49
2017-02-13T11:18:59.834Z,7.52
2017-02-13T11:20:57.276Z,7.56
2017-02-13T11:22:49.535Z,7.63
2017-02-13T11:24:46.903Z,7.68
2017-02-13T11:26:49.243Z,7.67
2017-02-13T11:28:51.479Z,7.58
2017-02-13T11:30:58.739Z,7.45
2017-02-13T11:32:56.201Z,7.35
2017-02-13T11:34:53.667Z,7.36
2017-02-13T11:37:06.095Z,7.35
2017-02-13T11:39:03.426Z,7.36
2017-02-13T11:41:00.691Z,7.39
2017-02-13T11:43:08.467Z,7.4
2017-02-13T11:45:00.871Z,7.51
2017-02-13T11:47:08.016Z,7.62
2017-02-13T11:49:10.273Z,7.77
2017-02-13T11:51:12.504Z,7.77
2017-02-13T11:53:09.706Z,7.71
2017-02-13T11:55:16.931Z,7.64
2017-02-13T11:57:19.329Z,7.63
2017-02-13T11:59:11.561Z,7.65
2017-02-13T12:01:03.822Z,7.59
2017-02-13T12:02:56.235Z,7.52
2017-02-13T12:04:58.987Z,7.47
2017-02-13T12:06:51.496Z,7.47
2017-02-13T12:08:53.819Z,7.49
2017-02-13T12:10:56.194Z,7.54
2017-02-13T12:12:53.538Z,7.59
2017-02-13T12:14:35.900Z,7.6
2017-02-13T12:16:38.328Z,7.55
2017-02-13T12:18:31.013Z,7.55
2017-02-13T12:20:23.308Z,7.66
2017-02-13T12:22:30.496Z,7.76
2017-02-13T12:24:27.889Z,7.77
2017-02-13T12:26:35.329Z,7.67
2017-02-13T12:28:22.650Z,7.53
2017-02-13T12:30:15.188Z,7.42
2017-02-13T12:32:17.443Z,7.25
2017-02-13T12:34:24.586Z,7.19
2017-02-13T12:36:07.079Z,7.2
2017-02-13T12:38:04.525Z,7.24
2017-02-13T12:39:56.863Z,7.2
2017-02-13T12:41:59.328Z,7.19
2017-02-13T12:43:46.818Z,7.21
2017-02-13T12:45:29.350Z,7.34
2017-02-13T12:47:16.726Z,7.42
2017-02-13T12:48:59.048Z,7.48
2017-02-13T12:51:06.405Z,7.64
2017-02-13T12:52:59.225Z,7.74
2017-02-13T12:54:56.691Z,7.77
2017-02-13T12:56:59.030Z,7.88
2017-02-13T12:58:56.314Z,8.33
2017-02-13T13:00:53.574Z,8.44
2017-02-13T13:03:00.990Z,8.57
2017-02-13T13:04:48.368Z,9.25
2017-02-13T13:06:50.726Z,9.3
2017-02-13T13:08:53.190Z,9.27
2017-02-13T13:10:40.651Z,9.1
2017-02-13T13:12:37.942Z,9.06
2017-02-13T13:14:40.610Z,9.07
2017-02-13T13:16:49.458Z,9.17
2017-02-13T13:18:57.074Z,9.22
2017-02-13T13:21:00.696Z,9.17
2017-02-13T13:22:48.083Z,9.28
2017-02-13T13:24:45.652Z,9.4
2017-02-13T13:26:58.666Z,9.42
2017-02-13T13:28:51.180Z,10.02
2017-02-13T13:30:58.408Z,10.18
2017-02-13T13:32:56.054Z,10.12
2017-02-13T13:34:53.331Z,10.05
2017-02-13T13:37:00.716Z,9.93
2017-02-13T13:38:53.219Z,9.93
2017-02-13T13:40:56.056Z,10.36
2017-02-13T13:42:58.546Z,10.95
2017-02-13T13:44:56.237Z,11.06
2017-02-13T13:46:48.931Z,10.88
2017-02-13T13:48:46.407Z,10.51
2017-02-13T13:50:33.952Z,10.62
2017-02-13T13:52:41.398Z,11.5
2017-02-13T13:54:38.818Z,11.96
2017-02-13T13:56:41.041Z,13.1
2017-02-13T13:58:33.388Z,14.85
2017-02-13T14:00:20.767Z,15.88
2017-02-13T14:02:23.090Z,16.6
2017-02-13T14:04:15.839Z,17.08
2017-02-13T14:06:13.130Z,16.44
2017-02-13T14:08:15.455Z,16.61
2017-02-13T14:10:17.849Z,15.82
2017-02-13T14:12:20.192Z,15
2017-02-13T14:14:17.479Z,14.1
2017-02-13T14:16:04.865Z,13.88
2017-02-13T14:18:07.265Z,14.05
2017-02-13T14:20:14.499Z,14.65
2017-02-13T14:22:11.780Z,14.95
2017-02-13T14:23:59.127Z,15.47
2017-02-13T14:25:56.404Z,15.91
2017-02-13T14:28:03.857Z,16.85
2017-02-13T14:30:11.239Z,17.41
2017-02-13T14:32:08.488Z,17.86
2017-02-13T14:33:50.851Z,18.17
2017-02-13T14:35:53.260Z,18.42
2017-02-13T14:37:50.699Z,18.56
2017-02-13T14:39:48.078Z,18.59
2017-02-13T14:41:45.540Z,18.8
2017-02-13T14:43:47.923Z,18.92
2017-02-13T14:45:50.226Z,19.17
2017-02-13T14:47:57.658Z,19.12
2017-02-13T14:49:50.109Z,18.98
2017-02-13T14:51:42.433Z,18.77
2017-02-13T14:53:39.655Z,18.52
2017-02-13T14:55:47.144Z,18.13
2017-02-13T14:57:39.506Z,17.97
2017-02-13T14:59:36.816Z,17.86
2017-02-13T15:01:44.031Z,17.52
2017-02-13T15:03:46.744Z,17.1
2017-02-13T15:05:49.028Z,16.63
2017-02-13T15:07:36.344Z,16.2
2017-02-13T15:09:33.798Z,15.72
2017-02-13T15:11:31.103Z,15.23
2017-02-13T15:13:18.375Z,14.77
2017-02-13T15:15:05.939Z,14.25
2017-02-13T15:16:58.879Z,13.68
2017-02-13T15:18:56.246Z,13.18
2017-02-13T15:20:58.794Z,12.8
2017-02-13T15:22:56.286Z,12.82
2017-02-13T15:24:48.667Z,12.78
2017-02-13T15:26:45.983Z,12.63
2017-02-13T15:28:38.328Z,12.41
2017-02-13T15:30:40.605Z,12.14
2017-02-13T15:32:33.208Z,11.84
2017-02-13T15:34:30.450Z,11.57
2017-02-13T15:36:28.752Z,11.28
2017-02-13T15:38:26.143Z,11.03
2017-02-13T15:40:23.320Z,10.76
2017-02-13T15:42:15.760Z,10.5
2017-02-13T15:44:08.104Z,10.37
2017-02-13T15:46:05.557Z,10.19
2017-02-13T15:48:03.038Z,9.89
2017-02-13T15:50:00.686Z,9.63
2017-02-13T15:52:03.431Z,9.35
2017-02-13T15:54:10.845Z,9.05
2017-02-13T15:56:13.186Z,8.74
2017-02-13T15:58:05.519Z,8.47
2017-02-13T16:00:02.764Z,8.2
2017-02-13T16:01:55.141Z,7.94
2017-02-13T16:03:37.483Z,7.71
2017-02-13T16:05:44.823Z,7.44
2017-02-13T16:07:47.513Z,7.18
2017-02-13T16:09:49.910Z,6.92
2017-02-13T16:11:47.481Z,6.66
2017-02-13T16:13:54.950Z,6.4
2017-02-13T16:16:02.265Z,6.15
2017-02-13T16:17:54.669Z,5.92
2017-02-13T16:19:47.129Z,5.7
2017-02-13T16:21:34.460Z,5.48
2017-02-13T16:23:31.947Z,5.25
2017-02-13T16:25:29.262Z,5.04
2017-02-13T16:27:26.675Z,4.84
2017-02-13T16:29:14.033Z,4.66
2017-02-13T16:31:16.351Z,4.45
2017-02-13T16:33:13.618Z,4.27
2017-02-13T16:35:10.894Z,4.09
2017-02-13T16:37:03.166Z,3.95
2017-02-13T16:39:00.502Z,3.8
2017-02-13T16:40:47.990Z,3.66
2017-02-13T16:43:00.176Z,3.52
2017-02-13T16:44:52.590Z,3.39
2017-02-13T16:46:54.883Z,3.25
2017-02-13T16:48:52.345Z,3.14
2017-02-13T16:50:44.921Z,3.01
2017-02-13T16:52:47.150Z,2.89
2017-02-13T16:54:54.455Z,2.77
2017-02-13T16:56:56.761Z,2.67
2017-02-13T16:58:59.105Z,2.57
2017-02-13T17:01:01.620Z,2.48
2017-02-13T17:02:59.108Z,2.44
2017-02-13T17:04:51.684Z,2.4
2017-02-13T17:06:49.139Z,2.36
2017-02-13T17:08:31.716Z,2.31
2017-02-13T17:10:38.994Z,2.25
2017-02-13T17:12:32.561Z,2.19
2017-02-13T17:14:29.974Z,2.12
2017-02-13T17:16:27.427Z,2.03
2017-02-13T17:18:25.003Z,1.92
2017-02-13T17:20:22.463Z,1.82
2017-02-13T17:22:24.829Z,1.72
2017-02-13T17:24:22.267Z,1.65
2017-02-13T17:26:19.530Z,1.61
2017-02-13T17:28:31.921Z,1.55
2017-02-13T17:30:35.095Z,1.48
2017-02-13T17:32:37.471Z,1.44
2017-02-13T17:34:44.839Z,1.37
2017-02-13T17:36:42.080Z,1.32
2017-02-13T17:38:29.534Z,1.27
2017-02-13T17:40:22.000Z,1.22
2017-02-13T17:42:09.339Z,1.15
2017-02-13T17:44:06.820Z,1.1
2017-02-13T17:46:09.220Z,1.05
2017-02-13T17:48:11.599Z,0.98
2017-02-13T17:50:04.051Z,0.93
2017-02-13T17:52:06.413Z,0.88
2017-02-13T17:54:18.896Z,0.82
2017-02-13T17:56:21.310Z,0.78
2017-02-13T17:58:23.827Z,0.72
2017-02-13T18:00:21.269Z,0.69
2017-02-13T18:02:18.822Z,0.67
2017-02-13T18:04:26.281Z,0.64
2017-02-13T18:06:28.711Z,0.59
2017-02-13T18:08:16.093Z,0.53
2017-02-13T18:10:23.389Z,0.47
2017-02-13T18:12:20.649Z,0.42
2017-02-13T18:14:18.200Z,0.37
2017-02-13T18:16:25.571Z,0.32
2017-02-13T18:18:32.937Z,0.28
2017-02-13T18:20:40.407Z,0.23
2017-02-13T18:22:47.861Z,0.18
2017-02-13T18:24:40.495Z,0.15
2017-02-13T18:26:42.813Z,0.1
2017-02-13T18:28:40.401Z,0.06
2017-02-13T18:30:42.906Z,0.02
2017-02-13T18:32:40.667Z,-0.01
2017-02-13T18:34:43.332Z,-0.07
2017-02-13T18:36:45.713Z,-0.1
2017-02-13T18:38:43.148Z,-0.12
2017-02-13T18:40:25.522Z,-0.15
2017-02-13T18:42:27.838Z,-0.2
2017-02-13T18:44:25.199Z,-0.22
2017-02-13T18:46:22.560Z,-0.25
2017-02-13T18:48:24.918Z,-0.27
2017-02-13T18:50:27.203Z,-0.29
2017-02-13T18:52:29.694Z,-0.32
2017-02-13T18:54:31.985Z,-0.35
2017-02-13T18:56:39.968Z,-0.38
2017-02-13T18:58:42.414Z,-0.43
2017-02-13T19:00:45.051Z,-0.45
2017-02-13T19:02:47.355Z,-0.47
2017-02-13T19:04:39.945Z,-0.5
2017-02-13T19:06:32.434Z,-0.53
2017-02-13T19:08:34.905Z,-0.58
2017-02-13T19:10:32.306Z,-0.64
2017-02-13T19:12:29.802Z,-0.66
2017-02-13T19:14:32.024Z,-0.65
2017-02-13T19:16:24.426Z,-0.64
2017-02-13T19:18:21.656Z,-0.64
2017-02-13T19:20:04.026Z,-0.65
2017-02-13T19:22:11.400Z,-0.64
2017-02-13T19:23:58.902Z,-0.65
2017-02-13T19:26:11.321Z,-0.71
2017-02-13T19:28:13.674Z,-0.74
2017-02-13T19:30:16.218Z,-0.75
2017-02-13T19:32:18.629Z,-0.79
2017-02-13T19:34:06.330Z,-0.84
2017-02-13T19:36:13.838Z,-0.84
2017-02-13T19:38:21.335Z,-0.86
2017-02-13T19:40:28.947Z,-0.91
2017-02-13T19:42:21.395Z,-0.96
2017-02-13T19:44:23.808Z,-1.01
2017-02-13T19:46:21.203Z,-1.06
2017-02-13T19:48:13.861Z,-1.1
2017-02-13T19:50:06.618Z,-1.14
2017-02-13T19:52:09.175Z,-1.19
2017-02-13T19:54:11.976Z,-1.23
2017-02-13T19:56:14.746Z,-1.27
2017-02-13T19:58:22.731Z,-1.3
2017-02-13T20:00:20.453Z,-1.32
2017-02-13T20:02:28.134Z,-1.35
2017-02-13T20:04:26.136Z,-1.37
2017-02-13T20:06:33.581Z,-1.41
2017-02-13T20:08:31.453Z,-1.43
2017-02-13T20:10:38.813Z,-1.47
2017-02-13T20:12:51.318Z,-1.5
2017-02-13T20:14:48.910Z,-1.53
2017-02-13T20:16:56.414Z,-1.56
2017-02-13T20:18:58.887Z,-1.56
2017-02-13T20:21:01.392Z,-1.58
2017-02-13T20:22:58.778Z,-1.6
2017-02-13T20:25:01.753Z,-1.6
2017-02-13T20:26:59.168Z,-1.58
2017-02-13T20:28:56.741Z,-1.58
2017-02-13T20:30:54.374Z,-1.55
2017-02-13T20:33:01.840Z,-1.49
2017-02-13T20:34:59.609Z,-1.46
2017-02-13T20:37:02.160Z,-1.44
2017-02-13T20:39:04.699Z,-1.4
2017-02-13T20:41:07.317Z,-1.39
2017-02-13T20:43:12.119Z,-1.4
2017-02-13T20:45:10.084Z,-1.42
2017-02-13T20:47:12.815Z,-1.47
2017-02-13T20:49:15.342Z,-1.52
2017-02-13T20:51:12.767Z,-1.57
2017-02-13T20:53:10.091Z,-1.6
2017-02-13T20:55:07.498Z,-1.62
2017-02-13T20:57:14.928Z,-1.66
2017-02-13T20:59:17.276Z,-1.72
2017-02-13T21:01:19.653Z,-1.76
2017-02-13T21:03:07.071Z,-1.79
2017-02-13T21:05:10.811Z,-1.84
2017-02-13T21:07:13.067Z,-1.88
2017-02-13T21:09:15.357Z,-1.92
2017-02-13T21:11:17.912Z,-1.96
2017-02-13T21:13:10.225Z,-2
2017-02-13T21:15:07.490Z,-2.04
2017-02-13T21:17:04.774Z,-2.07
2017-02-13T21:18:47.309Z,-2.09
2017-02-13T21:20:54.939Z,-2.13
2017-02-13T21:22:57.513Z,-2.15
2017-02-13T21:25:09.877Z,-2.19
2017-02-13T21:27:02.189Z,-2.21
2017-02-13T21:29:04.471Z,-2.24
2017-02-13T21:31:01.796Z,-2.25
2017-02-13T21:33:09.071Z,-2.29
2017-02-13T21:35:21.477Z,-2.3
2017-02-13T21:37:28.954Z,-2.29
2017-02-13T21:39:36.238Z,-2.29
2017-02-13T21:41:33.734Z,-2.3
2017-02-13T21:43:26.228Z,-2.29
2017-02-13T21:45:28.602Z,-2.28
2017-02-13T21:47:21.053Z,-2.28
2017-02-13T21:49:13.461Z,-2.28
2017-02-13T21:51:20.781Z,-2.27
2017-02-13T21:53:18.178Z,-2.26
2017-02-13T21:55:10.703Z,-2.26
2017-02-13T21:57:03.135Z,-2.25
2017-02-13T21:58:50.546Z,-2.25
2017-02-13T22:00:42.878Z,-2.24
2017-02-13T22:02:35.393Z,-2.21
2017-02-13T22:04:42.699Z,-2.19
2017-02-13T22:06:50.266Z,-2.17
2017-02-13T22:08:47.576Z,-2.18
2017-02-13T22:10:55.019Z,-2.17
2017-02-13T22:12:37.471Z,-2.16
2017-02-13T22:14:34.814Z,-2.15
2017-02-13T22:16:47.083Z,-2.17
2017-02-13T22:18:49.477Z,-2.16
2017-02-13T22:20:48.478Z,-2.13
2017-02-13T22:23:01.627Z,-2.11
2017-02-13T22:25:52.767Z,-2.14
2017-02-13T22:28:35.240Z,-2.19
2017-02-13T22:31:28.415Z,-2.26
2017-02-13T22:34:17.870Z,-2.33
2017-02-13T22:37:01.274Z,-2.4
2017-02-13T22:39:03.941Z,-2.45
2017-02-13T22:40:56.267Z,-2.49
2017-02-13T22:42:54.299Z,-2.51
2017-02-13T22:44:51.663Z,-2.52
2017-02-13T22:46:58.890Z,-2.55
2017-02-13T22:48:51.208Z,-2.58
2017-02-13T22:50:53.514Z,-2.61
2017-02-13T22:53:00.729Z,-2.65
2017-02-13T22:55:03.094Z,-2.67
2017-02-13T22:56:55.361Z,-2.69
2017-02-13T22:58:32.707Z,-2.7
2017-02-13T23:00:35.122Z,-2.73
2017-02-13T23:02:27.909Z,-2.75
2017-02-13T23:04:35.403Z,-2.77
2017-02-13T23:06:22.891Z,-2.78
2017-02-13T23:08:15.125Z,-2.79
2017-02-13T23:10:17.503Z,-2.81
2017-02-13T23:12:14.963Z,-2.83
2017-02-13T23:14:17.279Z,-2.82
2017-02-13T23:16:19.666Z,-2.8
2017-02-13T23:18:07.116Z,-2.8
2017-02-13T23:20:09.416Z,-2.8
2017-02-13T23:21:56.889Z,-2.84
2017-02-13T23:23:54.250Z,-2.87
2017-02-13T23:25:41.749Z,-2.89
2017-02-13T23:27:24.217Z,-2.92
2017-02-13T23:29:21.637Z,-2.91
2017-02-13T23:31:19.088Z,-2.89
2017-02-13T23:33:26.324Z,-2.81
2017-02-13T23:35:28.662Z,-2.7
2017-02-13T23:37:36.254Z,-2.62
2017-02-13T23:39:43.624Z,-2.59
2017-02-13T23:41:35.970Z,-2.55
2017-02-13T23:43:38.254Z,-2.54
2017-02-13T23:45:35.444Z,-2.55
2017-02-13T23:47:27.785Z,-2.54
2017-02-13T23:49:25.138Z,-2.52
2017-02-13T23:51:17.549Z,-2.5
2017-02-13T23:53:14.771Z,-2.47
2017-02-13T23:55:12.451Z,-2.45
2017-02-13T23:57:17.230Z,-2.46
2017-02-13T23:59:18.695Z,-2.5
